Time;durP1;ratioP1;P1;durP2;ratioP2;P2;SDS_P1;SDS_P2;PMS_P1;PMS_P2;Temp;Humidity;BMP_temperature;BMP_pressure;BME280_temperature;BME280_humidity;BME280_pressure;Samples;Min_cycle;Max_cycle;Signal;HPM_P1;HPM_P2
2022/12/13 00:01:19;;;;;;;22.25;13.27;;;-2.30;99.90;;;;;;4994542;28;20205;-83
2022/12/13 00:03:46;;;;;;;20.08;11.50;;;-2.30;99.90;;;;;;4993742;28;20601;-84
2022/12/13 00:06:13;;;;;;;28.85;14.50;;;-2.40;99.90;;;;;;5002353;28;20299;-84
2022/12/13 00:08:40;;;;;;;27.92;13.13;;;-2.40;99.90;;;;;;4990801;28;20204;-83
2022/12/13 00:11:10;;;;;;;24.00;11.95;;;-2.40;99.90;;;;;;4982691;28;20279;-82
2022/12/13 00:13:37;;;;;;;25.10;12.38;;;-2.40;99.90;;;;;;4984841;28;20312;-83
2022/12/13 00:16:07;;;;;;;21.27;13.88;;;-2.40;99.90;;;;;;4978677;28;20208;-84
2022/12/13 00:18:35;;;;;;;22.35;13.48;;;-2.50;99.90;;;;;;4982824;28;20203;-83
2022/12/13 00:21:05;;;;;;;23.92;13.43;;;-2.50;99.90;;;;;;4978906;28;20200;-81
2022/12/13 00:23:32;;;;;;;22.10;12.07;;;-2.50;99.90;;;;;;4988656;28;20218;-83
2022/12/13 00:26:03;;;;;;;24.85;13.30;;;-2.50;99.90;;;;;;5000404;28;20772;-83
2022/12/13 00:28:30;;;;;;;24.25;12.68;;;-2.50;99.90;;;;;;4993066;28;20201;-81
2022/12/13 00:30:57;;;;;;;27.45;13.80;;;-2.50;99.90;;;;;;4993829;28;20271;-80
2022/12/13 00:33:24;;;;;;;24.77;12.98;;;-2.50;99.90;;;;;;5007097;28;20247;-80
2022/12/13 00:35:52;;;;;;;20.02;12.38;;;-2.60;99.90;;;;;;5013999;28;20203;-80
2022/12/13 00:38:20;;;;;;;27.88;12.02;;;-2.60;99.90;;;;;;4997142;28;20256;-80
2022/12/13 00:40:46;;;;;;;22.02;12.05;;;-2.60;99.90;;;;;;4997966;28;20242;-80
2022/12/13 00:43:13;;;;;;;27.23;13.57;;;-2.60;99.90;;;;;;5002741;28;20207;-80
2022/12/13 00:45:41;;;;;;;22.92;13.23;;;-2.70;99.90;;;;;;5003343;28;20242;-79
2022/12/13 00:48:08;;;;;;;19.35;12.50;;;-2.70;99.90;;;;;;4998914;28;20231;-79
2022/12/13 00:50:34;;;;;;;24.08;13.23;;;-2.70;99.90;;;;;;4997498;28;20227;-81
2022/12/13 00:53:03;;;;;;;20.60;11.73;;;-2.70;99.90;;;;;;4999883;28;20249;-80
2022/12/13 00:55:29;;;;;;;27.10;13.60;;;-2.70;99.90;;;;;;5001466;28;20215;-81
2022/12/13 00:57:56;;;;;;;23.88;13.02;;;-2.70;99.90;;;;;;5011046;28;20227;-79
2022/12/13 01:00:24;;;;;;;22.55;12.55;;;-2.80;99.90;;;;;;5014291;28;20222;-79
2022/12/13 01:02:53;;;;;;;26.42;12.15;;;-2.80;99.90;;;;;;5009688;28;20763;-81
2022/12/13 01:05:19;;;;;;;23.73;13.30;;;-2.80;99.90;;;;;;4995704;28;20227;-80
2022/12/13 01:07:47;;;;;;;21.63;12.15;;;-2.80;99.90;;;;;;4999057;28;20215;-79
2022/12/13 01:10:15;;;;;;;25.77;13.30;;;-2.80;99.90;;;;;;5002944;28;20219;-80
2022/12/13 01:12:42;;;;;;;22.48;12.45;;;-2.80;99.90;;;;;;4997573;28;20235;-81
2022/12/13 01:15:09;;;;;;;25.00;14.02;;;-2.80;99.90;;;;;;5011384;28;20199;-79
2022/12/13 01:17:36;;;;;;;22.80;12.27;;;-2.90;99.90;;;;;;5014391;28;20195;-79
2022/12/13 01:20:05;;;;;;;21.70;13.73;;;-2.90;99.90;;;;;;5001157;28;20516;-81
2022/12/13 01:22:31;;;;;;;27.20;13.05;;;-2.90;99.90;;;;;;5007584;28;20196;-80
2022/12/13 01:24:58;;;;;;;20.40;12.02;;;-2.90;99.90;;;;;;5021431;28;20219;-81
2022/12/13 01:27:26;;;;;;;21.13;10.88;;;-3.00;99.90;;;;;;5015645;28;20231;-78
2022/12/13 01:29:53;;;;;;;21.77;12.55;;;-3.00;99.90;;;;;;5016553;28;20215;-80
2022/12/13 01:32:20;;;;;;;20.48;12.10;;;-3.00;99.90;;;;;;5018045;28;20249;-80
2022/12/13 01:34:47;;;;;;;22.02;12.48;;;-3.00;99.90;;;;;;5000180;28;20264;-81
2022/12/13 01:37:16;;;;;;;21.50;11.90;;;-3.00;99.90;;;;;;5000974;28;20228;-79
2022/12/13 01:39:43;;;;;;;27.15;12.88;;;-3.00;99.90;;;;;;5000410;28;20207;-81
2022/12/13 01:42:14;;;;;;;21.02;12.57;;;-3.00;99.90;;;;;;5000983;28;20245;-79
2022/12/13 01:45:05;;;;;;;24.35;13.25;;;-3.10;99.90;;;;;;5003475;28;20232;-78
2022/12/13 01:47:36;;;;;;;28.48;14.25;;;-3.10;99.90;;;;;;5001574;28;20193;-79
2022/12/13 01:50:06;;;;;;;24.33;12.80;;;-3.10;99.90;;;;;;5019470;28;20218;-80
2022/12/13 01:52:34;;;;;;;22.67;13.05;;;-3.10;99.90;;;;;;5017766;28;20220;-79
2022/12/13 01:55:04;;;;;;;25.20;12.68;;;-3.10;99.90;;;;;;5029518;28;20187;-80
2022/12/13 01:57:32;;;;;;;25.23;13.10;;;-3.20;99.90;;;;;;5023462;28;20207;-80
2022/12/13 02:00:01;;;;;;;28.80;13.15;;;-3.10;99.90;;;;;;4998323;28;20239;-80
2022/12/13 02:02:27;;;;;;;25.63;15.10;;;-3.10;99.90;;;;;;5003870;28;20192;-80
2022/12/13 02:05:00;;;;;;;25.30;14.48;;;-3.20;99.90;;;;;;5012431;28;20239;-85
2022/12/13 02:07:30;;;;;;;27.25;14.77;;;-3.20;99.90;;;;;;4996697;28;20278;-83
2022/12/13 02:10:00;;;;;;;27.67;13.57;;;-3.20;99.90;;;;;;4978955;28;20302;-84
2022/12/13 02:12:29;;;;;;;21.40;11.95;;;-3.20;99.90;;;;;;4981503;28;20203;-81
2022/12/13 02:14:57;;;;;;;23.17;13.73;;;-3.30;99.90;;;;;;4979879;28;20200;-82
2022/12/13 02:17:35;;;;;;;27.83;13.10;;;-3.20;99.90;;;;;;4993311;28;20209;-83
2022/12/13 02:20:32;;;;;;;24.92;13.05;;;-3.20;99.90;;;;;;4978359;28;20211;-82
2022/12/13 02:23:15;;;;;;;19.63;12.60;;;-3.20;99.90;;;;;;4982142;28;20236;-82
2022/12/13 02:26:02;;;;;;;22.08;12.95;;;-3.20;99.90;;;;;;4988253;28;20207;-82
2022/12/13 02:28:43;;;;;;;23.13;12.00;;;-3.20;99.90;;;;;;4988007;28;20204;-83
2022/12/13 02:31:16;;;;;;;22.92;13.40;;;-3.20;99.90;;;;;;4979078;28;20749;-81
2022/12/13 02:33:52;;;;;;;25.10;14.30;;;-3.20;99.90;;;;;;4978835;28;20228;-83
2022/12/13 02:36:27;;;;;;;24.45;13.00;;;-3.30;99.90;;;;;;4982185;28;20290;-84
2022/12/13 02:39:01;;;;;;;26.20;13.32;;;-3.30;99.90;;;;;;4986354;28;20743;-84
2022/12/13 02:41:36;;;;;;;23.17;12.73;;;-3.30;99.90;;;;;;4982420;28;20668;-82
2022/12/13 02:44:07;;;;;;;23.92;11.95;;;-3.30;99.90;;;;;;4985396;28;20648;-83
2022/12/13 02:46:40;;;;;;;22.45;12.80;;;-3.30;99.90;;;;;;4988322;28;20210;-83
2022/12/13 02:49:09;;;;;;;23.17;12.95;;;-3.40;99.90;;;;;;4987100;28;20223;-82
2022/12/13 02:51:38;;;;;;;23.85;13.52;;;-3.40;99.90;;;;;;4988957;28;20203;-83
2022/12/13 02:54:05;;;;;;;24.63;12.88;;;-3.30;99.90;;;;;;4987428;28;20228;-83
2022/12/13 02:56:32;;;;;;;29.27;15.48;;;-3.40;99.90;;;;;;4985844;28;20601;-83
2022/12/13 02:59:03;;;;;;;25.10;12.13;;;-3.40;99.90;;;;;;4984743;28;20263;-81
2022/12/13 03:01:44;;;;;;;22.52;13.27;;;-3.40;99.90;;;;;;5011209;28;20207;-80
2022/12/13 03:04:18;;;;;;;24.85;12.35;;;-3.50;99.90;;;;;;5001034;28;20227;-83
2022/12/13 03:06:55;;;;;;;25.70;13.57;;;-3.50;99.90;;;;;;4995788;28;20716;-84
2022/12/13 03:09:33;;;;;;;23.23;12.82;;;-3.50;99.90;;;;;;4996525;28;20195;-83
2022/12/13 03:15:07;;;;;;;23.27;12.57;;;-3.50;99.90;;;;;;4986998;28;20203;-83
2022/12/13 03:17:41;;;;;;;26.23;13.88;;;-3.50;99.90;;;;;;4981257;28;20214;-82
2022/12/13 03:20:09;;;;;;;26.25;13.70;;;-3.60;99.90;;;;;;4995702;28;20284;-83
2022/12/13 03:22:36;;;;;;;24.63;12.48;;;-3.60;99.90;;;;;;4996883;28;20229;-83
2022/12/13 03:25:04;;;;;;;24.98;12.35;;;-3.50;99.90;;;;;;4995048;28;20223;-82
2022/12/13 03:27:31;;;;;;;21.42;11.45;;;-3.50;99.90;;;;;;4992889;28;20241;-83
2022/12/13 03:29:58;;;;;;;24.08;13.68;;;-3.60;99.90;;;;;;5000431;28;20294;-82
2022/12/13 03:32:25;;;;;;;20.67;11.43;;;-3.60;99.90;;;;;;5001908;28;20218;-84
2022/12/13 03:34:53;;;;;;;23.08;13.52;;;-3.60;99.90;;;;;;4987701;28;20659;-84
2022/12/13 03:37:20;;;;;;;25.77;14.30;;;-3.60;99.90;;;;;;4977982;28;20231;-84
2022/12/13 03:39:47;;;;;;;25.08;14.10;;;-3.70;99.90;;;;;;4978975;28;20287;-83
2022/12/13 03:42:15;;;;;;;29.70;13.52;;;-3.60;99.90;;;;;;4980547;28;20219;-82
2022/12/13 03:44:41;;;;;;;24.92;12.77;;;-3.60;99.90;;;;;;4986707;28;20311;-82
2022/12/13 03:47:08;;;;;;;24.92;12.65;;;-3.70;99.90;;;;;;4994444;28;20199;-82
2022/12/13 03:49:35;;;;;;;25.10;13.35;;;-3.70;99.90;;;;;;4992648;28;20211;-83
2022/12/13 03:52:03;;;;;;;23.40;12.27;;;-3.70;99.90;;;;;;5006657;23;20303;-85
2022/12/13 03:54:30;;;;;;;24.23;13.55;;;-3.70;99.90;;;;;;5042110;28;20265;-85
2022/12/13 03:56:57;;;;;;;21.88;12.70;;;-3.70;99.90;;;;;;5041910;28;20210;-85
2022/12/13 03:59:23;;;;;;;21.55;12.38;;;-3.70;99.90;;;;;;5040378;28;20206;-85
2022/12/13 04:01:50;;;;;;;25.85;12.18;;;-3.70;99.90;;;;;;5042489;28;20245;-84
2022/12/13 04:04:19;;;;;;;21.40;12.20;;;-3.70;99.90;;;;;;5057274;28;20217;-84
2022/12/13 04:06:46;;;;;;;31.58;12.25;;;-3.80;99.90;;;;;;5037556;28;20240;-85
2022/12/13 04:09:14;;;;;;;26.92;12.75;;;-3.80;99.90;;;;;;5046313;28;20300;-84
2022/12/13 04:14:31;;;;;;;21.27;11.07;;;-3.80;99.90;;;;;;4994304;28;20196;-83
2022/12/13 04:16:57;;;;;;;24.27;12.70;;;-3.80;99.90;;;;;;5044029;28;20721;-86
2022/12/13 04:19:24;;;;;;;26.90;14.35;;;-3.90;99.90;;;;;;5044282;28;20265;-86
2022/12/13 04:21:52;;;;;;;23.58;11.18;;;-3.90;99.90;;;;;;5042957;28;20222;-85
2022/12/13 04:24:21;;;;;;;30.67;12.98;;;-3.90;99.90;;;;;;5060494;28;20599;-85
2022/12/13 04:26:48;;;;;;;23.15;11.77;;;-3.90;99.90;;;;;;5061172;28;20244;-86
2022/12/13 04:29:16;;;;;;;24.60;12.55;;;-3.80;99.90;;;;;;5041705;28;20231;-85
2022/12/13 04:31:43;;;;;;;25.95;13.38;;;-3.90;99.90;;;;;;5044072;28;20816;-86
2022/12/13 04:34:10;;;;;;;24.92;11.60;;;-3.90;99.90;;;;;;5045125;28;20205;-85
2022/12/13 04:36:37;;;;;;;23.65;11.82;;;-3.70;99.90;;;;;;5058648;28;20571;-86
2022/12/13 04:39:05;;;;;;;26.95;12.60;;;-3.90;99.90;;;;;;5062251;28;20622;-85
2022/12/13 04:41:37;;;;;;;26.33;12.35;;;-3.90;99.90;;;;;;5061136;28;20770;-85
2022/12/13 04:44:05;;;;;;;22.48;11.55;;;-3.90;99.90;;;;;;5061429;28;20209;-85
2022/12/13 04:46:33;;;;;;;29.45;12.45;;;-3.90;99.90;;;;;;5053133;28;20266;-85
2022/12/13 04:49:00;;;;;;;20.00;12.18;;;-2.20;99.90;;;;;;5051790;28;20285;-85
2022/12/13 04:51:27;;;;;;;23.30;12.35;;;-4.00;99.90;;;;;;5069197;28;20265;-85
2022/12/13 04:53:54;;;;;;;25.42;11.85;;;-4.00;99.90;;;;;;5071358;28;20210;-85
2022/12/13 04:56:20;;;;;;;24.38;11.50;;;-4.00;99.90;;;;;;5069128;28;20182;-86
2022/12/13 04:58:49;;;;;;;26.23;12.68;;;-4.00;99.90;;;;;;5060009;28;20225;-85
2022/12/13 05:01:15;;;;;;;20.98;11.07;;;-4.10;99.90;;;;;;5062690;28;20269;-85
2022/12/13 05:03:42;;;;;;;22.00;10.35;;;-4.20;99.90;;;;;;5057315;28;20280;-84
2022/12/13 05:06:12;;;;;;;26.73;12.05;;;-4.20;99.90;;;;;;5048343;28;20198;-85
2022/12/13 05:08:38;;;;;;;19.60;11.52;;;-4.10;99.90;;;;;;5055494;28;20205;-84
2022/12/13 05:11:05;;;;;;;23.20;12.35;;;-4.10;99.90;;;;;;5042624;28;20205;-85
2022/12/13 05:13:32;;;;;;;22.10;10.63;;;-4.20;99.90;;;;;;5047098;28;20701;-86
2022/12/13 05:16:03;;;;;;;21.15;11.18;;;-4.20;99.90;;;;;;5042892;28;20301;-85
2022/12/13 05:18:30;;;;;;;28.80;11.93;;;-4.10;99.90;;;;;;5054783;28;20305;-84
2022/12/13 05:21:01;;;;;;;20.20;11.23;;;-4.10;99.90;;;;;;5047546;28;20206;-84
2022/12/13 05:23:28;;;;;;;21.48;11.30;;;-4.10;99.90;;;;;;5051378;28;20982;-82
2022/12/13 05:25:55;;;;;;;28.45;12.18;;;-4.10;99.90;;;;;;5049028;28;20255;-82
2022/12/13 05:28:24;;;;;;;23.85;12.30;;;-4.20;99.90;;;;;;5039794;28;20209;-82
2022/12/13 05:30:51;;;;;;;20.67;11.43;;;-4.20;99.90;;;;;;5040843;28;20210;-82
2022/12/13 05:33:19;;;;;;;21.42;11.35;;;-4.10;99.90;;;;;;5058223;28;20253;-82
2022/12/13 05:35:46;;;;;;;25.73;12.48;;;-4.20;99.90;;;;;;5056318;28;20209;-82
2022/12/13 05:38:13;;;;;;;24.05;10.93;;;-4.10;99.90;;;;;;5056693;28;20272;-82
2022/12/13 05:40:40;;;;;;;24.58;12.82;;;-4.10;99.90;;;;;;5059960;28;20227;-83
2022/12/13 05:43:07;;;;;;;23.73;12.80;;;-4.20;99.90;;;;;;5043671;28;20230;-82
2022/12/13 05:45:34;;;;;;;19.05;10.80;;;-4.20;99.90;;;;;;5042001;28;20236;-84
2022/12/13 05:48:01;;;;;;;19.25;11.40;;;-4.10;99.90;;;;;;5050615;28;20216;-81
2022/12/13 05:50:29;;;;;;;24.65;11.02;;;-4.20;99.90;;;;;;5048233;28;20205;-81
2022/12/13 05:52:56;;;;;;;22.92;13.27;;;-4.10;99.90;;;;;;5059833;28;20233;-81
2022/12/13 05:55:23;;;;;;;21.58;12.52;;;-4.20;99.90;;;;;;5042540;28;20287;-82
2022/12/13 05:57:50;;;;;;;22.70;13.30;;;-4.20;99.90;;;;;;5039362;28;20202;-81
2022/12/13 06:00:17;;;;;;;21.42;10.88;;;-4.20;99.90;;;;;;5053662;28;20266;-82
2022/12/13 06:02:44;;;;;;;28.45;13.43;;;-4.10;99.90;;;;;;5059708;28;20233;-83
2022/12/13 06:05:11;;;;;;;28.05;12.27;;;-4.20;99.90;;;;;;5030146;28;21285;-84
2022/12/13 06:07:42;;;;;;;29.42;13.70;;;-4.20;99.90;;;;;;5032299;28;20212;-84
2022/12/13 06:10:10;;;;;;;30.05;12.40;;;-4.20;99.90;;;;;;5039715;28;20203;-83
2022/12/13 06:12:37;;;;;;;27.13;12.73;;;-4.10;99.90;;;;;;5046126;28;20218;-83
2022/12/13 06:15:05;;;;;;;22.52;12.23;;;-4.00;99.90;;;;;;5038735;28;20643;-84
2022/12/13 06:17:32;;;;;;;23.17;11.98;;;-4.00;99.90;;;;;;5046571;28;20288;-83
2022/12/13 06:19:59;;;;;;;23.73;10.98;;;-4.00;99.90;;;;;;5037572;28;20695;-86
2022/12/13 06:22:26;;;;;;;22.27;11.57;;;-4.00;99.90;;;;;;5045946;28;20220;-85
2022/12/13 06:24:55;;;;;;;23.83;12.52;;;-3.90;99.90;;;;;;5035870;28;20252;-84
2022/12/13 06:27:21;;;;;;;25.27;12.40;;;-3.90;99.90;;;;;;5043287;28;20244;-84
2022/12/13 06:29:48;;;;;;;27.52;12.38;;;-4.00;99.90;;;;;;5036440;28;20207;-83
2022/12/13 06:32:15;;;;;;;24.52;13.18;;;-4.00;99.90;;;;;;5043701;28;20226;-85
2022/12/13 06:34:42;;;;;;;31.10;13.63;;;-4.10;99.90;;;;;;5044351;28;20209;-84
2022/12/13 06:37:12;;;;;;;28.20;13.93;;;-3.90;99.90;;;;;;5041259;28;20206;-85
2022/12/13 06:39:39;;;;;;;21.90;11.85;;;-4.00;99.90;;;;;;5058078;28;20194;-84
2022/12/13 06:42:15;;;;;;;20.90;12.13;;;-4.10;99.90;;;;;;5041081;28;20284;-87
2022/12/13 06:44:42;;;;;;;23.85;11.70;;;-4.10;99.90;;;;;;5040356;28;20228;-83
2022/12/13 06:47:08;;;;;;;22.73;12.25;;;-4.00;99.90;;;;;;5045689;28;20221;-83
2022/12/13 06:49:35;;;;;;;31.70;13.35;;;-4.00;99.90;;;;;;5038906;28;20202;-84
2022/12/13 06:52:02;;;;;;;26.08;13.32;;;-4.00;99.90;;;;;;5056619;28;20237;-83
2022/12/13 06:54:29;;;;;;;25.15;12.20;;;-4.10;99.90;;;;;;5044117;28;20202;-84
2022/12/13 06:56:56;;;;;;;34.00;16.75;;;-4.10;99.90;;;;;;5049008;28;20202;-84
2022/12/13 06:59:24;;;;;;;32.22;16.33;;;-2.40;99.90;;;;;;5038723;28;20213;-83
2022/12/13 07:01:51;;;;;;;27.63;14.60;;;-2.50;99.90;;;;;;5037588;28;20226;-85
2022/12/13 07:04:18;;;;;;;29.92;15.65;;;-2.70;99.90;;;;;;5037163;28;20277;-84
2022/12/13 07:06:44;;;;;;;28.92;14.15;;;-3.00;99.90;;;;;;5042257;28;20213;-83
2022/12/13 07:09:11;;;;;;;31.52;15.20;;;-3.10;99.90;;;;;;5042905;28;20214;-84
2022/12/13 07:11:38;;;;;;;27.65;15.07;;;-3.20;99.90;;;;;;5038385;28;20320;-84
2022/12/13 07:14:05;;;;;;;27.77;15.25;;;-3.40;99.90;;;;;;5056155;28;20206;-84
2022/12/13 07:16:33;;;;;;;28.23;14.00;;;-3.50;99.90;;;;;;5055059;28;20265;-83
2022/12/13 07:19:04;;;;;;;26.88;15.82;;;-3.60;99.90;;;;;;5044962;28;20721;-83
2022/12/13 07:21:31;;;;;;;30.67;16.40;;;-3.70;99.90;;;;;;5057578;28;20201;-83
2022/12/13 07:23:58;;;;;;;27.10;12.40;;;-3.80;99.90;;;;;;5056986;28;20739;-84
2022/12/13 07:26:25;;;;;;;28.58;12.70;;;-3.80;99.90;;;;;;5048575;28;20226;-84
2022/12/13 07:28:52;;;;;;;21.73;13.23;;;-3.80;99.90;;;;;;5045240;28;20213;-83
2022/12/13 07:31:19;;;;;;;25.17;13.38;;;-3.80;99.90;;;;;;5059122;28;20206;-84
2022/12/13 07:33:47;;;;;;;26.80;13.57;;;-3.90;99.90;;;;;;5046508;28;20777;-84
2022/12/13 07:36:16;;;;;;;19.83;11.23;;;-4.00;99.90;;;;;;5037242;28;20198;-84
2022/12/13 07:38:43;;;;;;;28.85;14.80;;;-4.00;99.90;;;;;;5036779;28;20297;-84
2022/12/13 07:41:10;;;;;;;34.88;13.18;;;-4.00;99.90;;;;;;5046175;28;20205;-83
2022/12/13 07:43:37;;;;;;;28.27;13.48;;;-4.00;99.90;;;;;;5039442;28;20313;-82
2022/12/13 07:46:06;;;;;;;29.42;14.70;;;-4.00;99.90;;;;;;5041873;28;20224;-83
2022/12/13 07:48:33;;;;;;;23.70;13.48;;;-4.10;99.90;;;;;;5040843;28;20237;-84
2022/12/13 07:51:04;;;;;;;27.38;13.27;;;-4.10;99.90;;;;;;5043518;28;20222;-84
2022/12/13 07:53:31;;;;;;;22.70;12.43;;;-4.00;99.90;;;;;;5052804;28;20253;-85
2022/12/13 07:56:00;;;;;;;25.83;13.07;;;-4.00;99.90;;;;;;5037216;28;20274;-85
2022/12/13 07:58:28;;;;;;;26.67;13.43;;;-4.00;99.90;;;;;;5036656;28;20314;-85
2022/12/13 08:00:59;;;;;;;25.17;14.18;;;-4.00;99.90;;;;;;5037874;28;20252;-85
2022/12/13 08:03:26;;;;;;;28.50;13.77;;;-4.00;99.90;;;;;;5042717;28;20252;-83
2022/12/13 08:05:59;;;;;;;31.13;13.43;;;-3.90;99.90;;;;;;5039110;28;20809;-84
2022/12/13 08:08:27;;;;;;;22.48;12.55;;;-3.90;99.90;;;;;;5039489;28;20234;-84
2022/12/13 08:10:54;;;;;;;24.65;13.02;;;-3.90;99.90;;;;;;5037702;28;20302;-84
2022/12/13 08:13:21;;;;;;;22.15;12.40;;;-3.80;99.90;;;;;;5046245;28;20247;-83
2022/12/13 08:15:48;;;;;;;25.95;12.13;;;-3.80;99.90;;;;;;5037570;28;20209;-84
2022/12/13 08:18:15;;;;;;;22.83;12.27;;;-3.80;99.90;;;;;;5047372;28;20216;-84
2022/12/13 08:20:42;;;;;;;22.27;12.35;;;-3.80;99.90;;;;;;5044383;28;20220;-83
2022/12/13 08:23:08;;;;;;;23.67;12.75;;;-3.80;99.90;;;;;;5037901;28;20316;-83
2022/12/13 08:25:36;;;;;;;25.38;13.48;;;-3.80;99.90;;;;;;5042968;28;20657;-84
2022/12/13 08:28:03;;;;;;;26.77;12.65;;;-3.80;99.90;;;;;;5039037;28;20214;-83
2022/12/13 08:30:32;;;;;;;22.10;12.52;;;-3.70;99.90;;;;;;5037611;28;20241;-84
2022/12/13 08:32:59;;;;;;;27.38;12.80;;;-3.60;99.90;;;;;;5033739;28;20289;-83
2022/12/13 08:35:27;;;;;;;25.52;12.35;;;-3.50;99.90;;;;;;5040917;28;20216;-84
2022/12/13 08:37:54;;;;;;;24.65;14.05;;;-3.50;99.90;;;;;;5046199;28;20292;-84
2022/12/13 08:40:21;;;;;;;19.80;11.90;;;-3.40;99.90;;;;;;5040220;28;20233;-85
2022/12/13 08:42:49;;;;;;;25.80;13.52;;;-3.40;99.90;;;;;;5055425;28;20245;-85
2022/12/13 08:45:16;;;;;;;23.02;13.13;;;-3.40;99.90;;;;;;5043923;28;20218;-85
2022/12/13 08:47:43;;;;;;;18.33;11.50;;;-3.40;99.90;;;;;;5052395;28;20272;-84
2022/12/13 08:50:10;;;;;;;23.52;12.10;;;-3.40;99.90;;;;;;5057133;28;20649;-85
2022/12/13 08:52:37;;;;;;;21.52;11.90;;;-3.30;99.90;;;;;;5044487;28;20229;-85
2022/12/13 08:55:04;;;;;;;21.40;12.50;;;-3.30;99.90;;;;;;5045722;28;20224;-82
2022/12/13 08:57:31;;;;;;;23.88;14.00;;;-3.20;99.90;;;;;;5067311;28;20228;-82
2022/12/13 08:59:59;;;;;;;22.25;11.80;;;-3.20;99.90;;;;;;5052064;28;20271;-82
2022/12/13 09:02:26;;;;;;;22.98;12.90;;;-3.20;99.90;;;;;;5052620;28;20281;-85
2022/12/13 09:04:53;;;;;;;25.05;11.85;;;-3.10;99.90;;;;;;5056731;28;20276;-84
2022/12/13 09:07:20;;;;;;;23.17;12.73;;;-3.00;99.90;;;;;;5067791;28;20221;-82
2022/12/13 09:09:46;;;;;;;26.60;11.93;;;-2.90;99.90;;;;;;5050508;28;20224;-83
2022/12/13 09:12:13;;;;;;;23.10;13.27;;;-2.90;99.90;;;;;;5039111;28;20222;-81
2022/12/13 09:14:40;;;;;;;24.63;12.63;;;-2.90;99.90;;;;;;5037031;28;20293;-85
2022/12/13 09:17:08;;;;;;;21.27;11.55;;;-2.80;99.90;;;;;;5054240;28;20293;-84
2022/12/13 09:19:35;;;;;;;20.13;12.13;;;-2.80;99.90;;;;;;5057645;28;20205;-82
2022/12/13 09:22:03;;;;;;;24.55;11.07;;;-2.70;99.90;;;;;;5053954;28;20218;-83
2022/12/13 09:24:30;;;;;;;21.13;12.40;;;-2.70;99.90;;;;;;5036026;28;20206;-83
2022/12/13 09:26:57;;;;;;;31.02;12.10;;;-2.60;99.90;;;;;;5038812;28;20614;-84
2022/12/13 09:29:24;;;;;;;21.48;11.60;;;-2.50;99.90;;;;;;5037224;28;20230;-84
2022/12/13 09:31:51;;;;;;;23.70;13.70;;;-2.40;99.90;;;;;;5047892;28;20735;-84
2022/12/13 09:34:19;;;;;;;22.85;10.82;;;-2.30;99.90;;;;;;5049330;28;20217;-85
2022/12/13 09:36:46;;;;;;;26.10;10.90;;;-2.20;99.90;;;;;;5058247;28;20202;-84
2022/12/13 09:39:13;;;;;;;19.38;12.02;;;-2.20;99.90;;;;;;5052415;28;20212;-84
2022/12/13 09:41:42;;;;;;;16.83;11.05;;;-2.10;99.90;;;;;;5041561;28;20762;-84
2022/12/13 09:44:16;;;;;;;28.25;13.38;;;-2.10;99.90;;;;;;5042882;28;20203;-83
2022/12/13 09:46:45;;;;;;;22.48;13.18;;;-2.00;99.90;;;;;;5057406;28;20256;-84
2022/12/13 09:49:17;;;;;;;26.13;12.38;;;-1.90;99.90;;;;;;5047243;28;20202;-85
2022/12/13 09:51:49;;;;;;;21.98;11.95;;;-1.90;99.90;;;;;;5045427;28;20225;-86
2022/12/13 09:54:20;;;;;;;24.10;13.18;;;-1.90;99.90;;;;;;5060844;28;20285;-86
2022/12/13 09:56:49;;;;;;;23.70;12.93;;;-1.90;99.90;;;;;;5054852;28;20563;-86
2022/12/13 09:59:17;;;;;;;26.65;12.70;;;-1.90;99.90;;;;;;5048107;28;20209;-85
2022/12/13 10:01:45;;;;;;;26.70;13.13;;;-1.80;99.90;;;;;;5046225;28;20225;-84
2022/12/13 10:04:14;;;;;;;27.42;14.23;;;-1.70;99.90;;;;;;5039350;28;20209;-86
2022/12/13 10:06:41;;;;;;;28.25;13.95;;;-1.70;99.90;;;;;;5040038;28;20218;-84
2022/12/13 10:09:12;;;;;;;22.63;13.23;;;-1.60;99.90;;;;;;5046573;28;20201;-83
2022/12/13 10:11:47;;;;;;;22.00;11.93;;;-1.50;99.90;;;;;;5052811;28;20310;-84
2022/12/13 10:14:19;;;;;;;21.75;13.27;;;-1.50;99.90;;;;;;5038204;28;20212;-84
2022/12/13 10:16:50;;;;;;;25.60;12.48;;;-1.50;99.90;;;;;;5042151;28;20190;-85
2022/12/13 10:19:22;;;;;;;19.02;11.40;;;-1.50;99.90;;;;;;5048001;28;20293;-84
2022/12/13 10:21:50;;;;;;;21.88;11.68;;;-1.40;99.90;;;;;;5045388;28;20237;-82
2022/12/13 10:24:20;;;;;;;23.55;13.95;;;-1.30;99.90;;;;;;5038443;28;20206;-84
2022/12/13 10:26:50;;;;;;;21.60;11.65;;;-1.20;99.90;;;;;;5043639;28;20248;-83
2022/12/13 10:29:20;;;;;;;22.02;9.93;;;-1.30;99.90;;;;;;5061323;28;20213;-84
2022/12/13 10:32:09;;;;;;;20.58;12.07;;;-1.20;99.90;;;;;;5065361;28;20248;-83
2022/12/13 10:35:01;;;;;;;19.20;11.20;;;-1.10;99.90;;;;;;5055940;28;20266;-83
2022/12/13 10:37:30;;;;;;;7.95;6.10;;;-1.00;99.90;;;;;;5046225;28;20207;-82
2022/12/13 10:39:59;;;;;;;35.25;19.67;;;0.80;99.90;;;;;;5051194;28;20445;-84
2022/12/13 10:42:26;;;;;;;46.35;24.02;;;2.50;99.90;;;;;;5039911;28;20664;-83
2022/12/13 10:45:14;;;;;;;34.97;20.33;;;2.40;99.90;;;;;;5044271;28;20290;-84
2022/12/13 10:47:43;;;;;;;31.37;18.00;;;2.10;99.90;;;;;;5038642;28;20437;-84
2022/12/13 10:50:24;;;;;;;32.85;19.45;;;1.80;99.90;;;;;;5037313;28;20420;-85
2022/12/13 10:52:51;;;;;;;32.13;18.80;;;1.50;99.90;;;;;;5043586;28;20706;-83
2022/12/13 10:55:28;;;;;;;23.73;16.60;;;1.20;99.90;;;;;;5042020;28;20228;-86
2022/12/13 10:57:57;;;;;;;24.90;14.15;;;1.00;99.90;;;;;;5043801;28;20215;-83
2022/12/13 11:00:37;;;;;;;22.27;11.25;;;0.70;99.90;;;;;;5042029;28;20273;-83
2022/12/13 11:03:07;;;;;;;18.10;9.63;;;0.40;99.90;;;;;;5047862;28;20236;-85
2022/12/13 11:05:36;;;;;;;21.40;10.10;;;0.30;99.90;;;;;;5036650;28;20231;-83
2022/12/13 11:08:14;;;;;;;14.75;9.45;;;0.50;99.90;;;;;;5037270;28;20212;-81
2022/12/13 11:10:43;;;;;;;16.55;10.02;;;0.60;99.90;;;;;;5037244;28;20288;-81
2022/12/13 11:13:23;;;;;;;14.85;9.55;;;0.70;99.90;;;;;;5040181;28;20228;-83
2022/12/13 11:15:55;;;;;;;16.58;9.32;;;0.80;99.90;;;;;;5037506;28;20687;-82
2022/12/13 11:18:25;;;;;;;18.30;9.07;;;0.80;99.90;;;;;;5037692;28;20206;-81
2022/12/13 11:20:56;;;;;;;12.77;8.02;;;1.00;99.90;;;;;;5048386;28;20302;-82
2022/12/13 11:23:28;;;;;;;32.20;9.65;;;1.60;99.90;;;;;;5060024;28;20235;-82
2022/12/13 11:26:00;;;;;;;12.48;7.65;;;2.40;99.90;;;;;;5052565;28;20213;-82
2022/12/13 11:28:40;;;;;;;11.38;7.22;;;3.20;99.90;;;;;;5058926;28;20213;-83
2022/12/13 11:31:15;;;;;;;13.27;7.43;;;4.30;99.90;;;;;;5053506;28;20205;-82
2022/12/13 11:33:53;;;;;;;14.27;7.50;;;5.20;99.90;;;;;;5060301;28;20435;-83
2022/12/13 11:36:31;;;;;;;15.13;8.53;;;6.00;99.90;;;;;;5048477;28;20539;-82
2022/12/13 11:39:09;;;;;;;13.43;8.83;;;5.40;99.90;;;;;;5038358;28;20528;-82
2022/12/13 11:41:44;;;;;;;14.93;8.37;;;4.80;99.90;;;;;;5045370;28;20539;-83
2022/12/13 11:44:16;;;;;;;15.50;11.17;;;4.50;99.90;;;;;;5040134;28;20487;-82
2022/12/13 11:46:46;;;;;;;13.30;8.30;;;4.10;99.90;;;;;;5050785;28;20483;-82
2022/12/13 11:49:17;;;;;;;13.70;8.33;;;4.00;99.90;;;;;;5058917;28;20452;-81
2022/12/13 11:51:48;;;;;;;15.07;7.13;;;3.90;99.90;;;;;;5041680;28;20579;-81
2022/12/13 11:54:23;;;;;;;16.87;8.00;;;3.80;99.90;;;;;;5046948;28;20441;-81
2022/12/13 11:56:54;;;;;;;11.37;7.37;;;4.80;99.90;;;;;;5059985;28;20438;-83
2022/12/13 11:59:27;;;;;;;14.77;8.00;;;6.80;99.90;;;;;;5045474;28;20482;-83
2022/12/13 12:01:59;;;;;;;14.50;8.00;;;8.50;99.90;;;;;;5031735;28;21043;-83
2022/12/13 12:04:34;;;;;;;15.03;7.87;;;8.70;99.90;;;;;;5040082;28;20501;-82
2022/12/13 12:07:10;;;;;;;11.30;6.77;;;8.40;99.90;;;;;;5038331;28;20576;-83
2022/12/13 12:09:41;;;;;;;15.50;7.17;;;7.80;99.50;;;;;;5033487;28;20445;-82
2022/12/13 12:12:16;;;;;;;16.70;8.90;;;6.80;99.90;;;;;;5037282;28;20501;-81
2022/12/13 12:14:48;;;;;;;18.43;8.03;;;6.20;99.90;;;;;;5048425;28;20462;-82
2022/12/13 12:17:21;;;;;;;16.73;7.80;;;5.60;99.90;;;;;;5048346;28;20480;-82
2022/12/13 12:19:52;;;;;;;13.83;8.70;;;5.20;99.90;;;;;;5038061;28;20539;-83
2022/12/13 12:22:30;;;;;;;16.27;7.50;;;4.90;99.90;;;;;;5046598;28;21070;-83
2022/12/13 12:25:13;;;;;;;18.00;8.87;;;4.80;99.90;;;;;;5057223;28;20452;-81
2022/12/13 12:27:49;;;;;;;16.57;9.60;;;4.60;99.90;;;;;;5049742;28;20876;-81
2022/12/13 12:30:20;;;;;;;16.23;8.07;;;4.50;99.90;;;;;;5037798;28;20446;-81
2022/12/13 12:32:53;;;;;;;19.23;8.73;;;4.30;99.90;;;;;;5040081;28;21049;-82
2022/12/13 12:35:41;;;;;;;17.37;8.40;;;3.80;99.90;;;;;;5044474;28;21004;-82
2022/12/13 12:38:18;;;;;;;18.20;10.20;;;3.90;99.90;;;;;;5056183;28;20494;-83
2022/12/13 12:41:02;;;;;;;17.87;9.30;;;3.90;99.90;;;;;;5037851;28;20881;-82
2022/12/13 12:43:33;;;;;;;16.13;8.97;;;3.60;99.90;;;;;;5036923;28;20472;-81
2022/12/13 12:46:14;;;;;;;17.60;7.83;;;3.50;99.90;;;;;;5039078;28;20483;-81
2022/12/13 12:49:00;;;;;;;13.57;9.03;;;3.50;99.90;;;;;;5037097;28;20449;-81